Time;durP1;ratioP1;P1;durP2;ratioP2;P2;SDS_P1;SDS_P2;PMS_P1;PMS_P2;Temp;Humidity;BMP_temperature;BMP_pressure;BME280_temperature;BME280_humidity;BME280_pressure;Samples;Min_cycle;Max_cycle;Signal;HPM_P1;HPM_P2
2023/08/09 00:00:08;;;;;;;3.43;0.90;;;;;;;;;;4895212;29;20612;-71
2023/08/09 00:02:52;;;;;;;1.30;0.90;;;;;;;;;;4913346;29;20631;-71
2023/08/09 00:05:19;;;;;;;1.67;1.03;;;;;;;;;;4894445;29;20196;-71
2023/08/09 00:08:03;;;;;;;1.47;0.87;;;;;;;;;;4909881;29;20699;-71
2023/08/09 00:10:30;;;;;;;2.03;1.00;;;;;;;;;;4910313;29;20202;-72
2023/08/09 00:12:56;;;;;;;1.00;0.80;;;;;;;;;;4895272;29;20271;-71
2023/08/09 00:15:23;;;;;;;1.53;0.90;;;;;;;;;;4911849;29;20651;-72
2023/08/09 00:17:50;;;;;;;1.40;0.83;;;;;;;;;;4894329;29;20239;-71
2023/08/09 00:20:17;;;;;;;2.60;0.90;;;;;;;;;;4912858;29;20489;-72
2023/08/09 00:22:43;;;;;;;4.70;1.10;;;;;;;;;;4912042;29;20556;-71
2023/08/09 00:25:13;;;;;;;1.00;0.80;;;;;;;;;;4896224;29;20785;-71
2023/08/09 00:27:40;;;;;;;1.67;1.07;;;;;;;;;;4879789;29;20242;-71
2023/08/09 00:30:14;;;;;;;1.77;1.00;;;;;;;;;;4894596;29;20210;-71
2023/08/09 00:32:40;;;;;;;2.30;0.83;;;;;;;;;;4914710;29;20938;-71
2023/08/09 00:35:08;;;;;;;1.93;1.00;;;;;;;;;;4929372;29;20211;-72
2023/08/09 00:37:36;;;;;;;1.90;0.80;;;;;;;;;;4912974;29;20190;-72
2023/08/09 00:40:07;;;;;;;0.80;0.80;;;;;;;;;;4911743;29;20190;-71
2023/08/09 00:42:34;;;;;;;2.77;0.80;;;;;;;;;;4929982;29;20756;-72
2023/08/09 00:45:00;;;;;;;2.60;1.00;;;;;;;;;;4911481;29;20207;-71
2023/08/09 00:47:28;;;;;;;1.77;1.10;;;;;;;;;;4920440;29;20231;-71
2023/08/09 00:49:55;;;;;;;1.67;0.80;;;;;;;;;;4915862;29;20254;-71
2023/08/09 00:52:24;;;;;;;2.47;1.30;;;;;;;;;;4918494;29;20315;-72
2023/08/09 00:54:51;;;;;;;1.97;0.83;;;;;;;;;;4895838;29;20282;-71
2023/08/09 00:57:19;;;;;;;3.10;1.10;;;;;;;;;;4895921;29;20675;-72
2023/08/09 00:59:46;;;;;;;1.97;1.03;;;;;;;;;;4896342;29;20735;-72
2023/08/09 01:02:30;;;;;;;2.00;1.10;;;;;;;;;;4911482;29;20179;-71
2023/08/09 01:04:58;;;;;;;2.33;0.97;;;;;;;;;;4896444;29;20290;-72
2023/08/09 01:07:45;;;;;;;4.90;1.27;;;;;;;;;;4907151;29;20254;-72
2023/08/09 01:46:07;;;;;;;1.87;1.40;;;;;;;;;;4930476;29;20572;-71
2023/08/09 01:48:35;;;;;;;1.50;1.40;;;;;;;;;;4912994;29;20239;-72
2023/08/09 01:51:02;;;;;;;4.43;1.57;;;;;;;;;;4913173;29;20213;-73
2023/08/09 01:53:29;;;;;;;2.07;1.20;;;;;;;;;;4894046;29;20216;-72
2023/08/09 01:55:56;;;;;;;2.30;1.70;;;;;;;;;;4908142;29;20814;-71
2023/08/09 01:58:23;;;;;;;4.23;1.70;;;;;;;;;;4894836;29;20575;-72
2023/08/09 02:00:50;;;;;;;3.10;1.63;;;;;;;;;;4893901;29;20203;-71
2023/08/09 02:03:17;;;;;;;2.67;1.80;;;;;;;;;;4894510;29;20639;-71
2023/08/09 02:05:44;;;;;;;2.50;1.60;;;;;;;;;;4894307;29;20254;-71
2023/08/09 02:08:11;;;;;;;3.30;1.80;;;;;;;;;;4908588;29;20203;-71
2023/08/09 02:10:55;;;;;;;5.60;2.10;;;;;;;;;;4867580;29;20318;-71
2023/08/09 02:13:22;;;;;;;4.20;2.10;;;;;;;;;;4893956;29;20195;-71
2023/08/09 02:16:06;;;;;;;2.57;1.73;;;;;;;;;;4877067;29;20180;-71
2023/08/09 02:18:33;;;;;;;3.80;1.93;;;;;;;;;;4891484;29;20199;-71
2023/08/09 02:21:17;;;;;;;3.77;2.17;;;;;;;;;;4891587;29;20195;-71
2023/08/09 02:23:45;;;;;;;2.90;1.97;;;;;;;;;;4891449;29;20208;-71
2023/08/09 02:26:12;;;;;;;3.47;2.20;;;;;;;;;;4893774;29;20273;-71
2023/08/09 02:28:38;;;;;;;4.30;2.43;;;;;;;;;;4910727;29;20279;-71
2023/08/09 02:31:08;;;;;;;2.67;2.07;;;;;;;;;;4894016;29;20592;-71
2023/08/09 02:33:35;;;;;;;4.27;2.43;;;;;;;;;;4910446;29;20269;-71
2023/08/09 02:36:05;;;;;;;4.57;2.40;;;;;;;;;;4894713;29;20532;-71
2023/08/09 02:38:32;;;;;;;3.90;2.50;;;;;;;;;;4894322;29;20831;-71
2023/08/09 02:41:00;;;;;;;4.00;2.47;;;;;;;;;;4879615;29;20292;-71
2023/08/09 02:43:28;;;;;;;5.00;2.80;;;;;;;;;;4893040;29;20192;-71
2023/08/09 02:45:54;;;;;;;5.20;3.13;;;;;;;;;;4893586;29;20290;-71
2023/08/09 02:48:39;;;;;;;3.53;2.83;;;;;;;;;;4898231;29;20226;-73
2023/08/09 02:51:06;;;;;;;3.40;2.90;;;;;;;;;;4897592;29;20231;-74
2023/08/09 02:53:34;;;;;;;4.60;2.77;;;;;;;;;;4897495;29;20211;-73
2023/08/09 02:56:00;;;;;;;4.67;2.70;;;;;;;;;;4897366;29;20192;-73
2023/08/09 02:58:27;;;;;;;4.97;3.47;;;;;;;;;;4895704;29;20195;-73
2023/08/09 03:00:54;;;;;;;4.70;3.20;;;;;;;;;;4913907;29;20218;-73
2023/08/09 03:03:21;;;;;;;4.20;3.20;;;;;;;;;;4913858;29;20202;-73
2023/08/09 03:05:48;;;;;;;5.73;3.23;;;;;;;;;;4896858;29;20314;-73
2023/08/09 03:08:15;;;;;;;3.73;3.27;;;;;;;;;;4881838;29;20700;-73
2023/08/09 03:10:42;;;;;;;6.03;3.67;;;;;;;;;;4897988;29;20203;-74
2023/08/09 03:13:09;;;;;;;5.43;3.60;;;;;;;;;;4898192;29;20226;-70
2023/08/09 03:15:36;;;;;;;4.17;3.73;;;;;;;;;;4914235;29;20215;-73
2023/08/09 03:18:02;;;;;;;5.40;3.47;;;;;;;;;;4912589;29;20263;-73
2023/08/09 03:20:31;;;;;;;7.47;4.17;;;;;;;;;;4897426;29;20648;-71
2023/08/09 03:22:59;;;;;;;6.13;3.60;;;;;;;;;;4896727;29;20227;-71
2023/08/09 03:25:31;;;;;;;7.27;3.90;;;;;;;;;;4883990;29;20187;-71
2023/08/09 03:27:59;;;;;;;4.20;3.57;;;;;;;;;;4898081;29;20225;-71
2023/08/09 03:30:43;;;;;;;4.60;3.30;;;;;;;;;;4892386;29;20188;-72
2023/08/09 03:33:10;;;;;;;5.60;3.60;;;;;;;;;;4912075;29;20345;-74
2023/08/09 03:35:39;;;;;;;5.87;3.90;;;;;;;;;;4895824;29;20193;-73
2023/08/09 03:38:06;;;;;;;4.80;3.73;;;;;;;;;;4880663;29;20195;-71
2023/08/09 03:40:33;;;;;;;5.33;3.70;;;;;;;;;;4898899;29;20195;-71
2023/08/09 03:43:00;;;;;;;8.23;3.67;;;;;;;;;;4892738;29;20323;-71
2023/08/09 03:45:28;;;;;;;6.07;3.73;;;;;;;;;;4897592;29;20287;-71
2023/08/09 03:47:55;;;;;;;3.60;3.20;;;;;;;;;;4904692;29;20246;-70
2023/08/09 03:50:24;;;;;;;5.57;3.30;;;;;;;;;;4892671;29;20254;-71
2023/08/09 03:52:51;;;;;;;5.13;3.33;;;;;;;;;;4895252;29;20239;-72
2023/08/09 03:55:19;;;;;;;5.90;3.33;;;;;;;;;;4882426;29;20291;-72
2023/08/09 03:57:46;;;;;;;6.97;3.43;;;;;;;;;;4877551;29;20206;-72
2023/08/09 04:00:17;;;;;;;4.90;3.40;;;;;;;;;;4893653;29;20189;-72
2023/08/09 04:02:45;;;;;;;4.17;3.70;;;;;;;;;;4912246;29;20208;-71
2023/08/09 04:05:29;;;;;;;4.57;3.50;;;;;;;;;;4879179;29;20195;-72
2023/08/09 04:07:58;;;;;;;3.40;3.10;;;;;;;;;;4879630;29;20305;-72
2023/08/09 04:10:25;;;;;;;7.50;3.87;;;;;;;;;;4910268;29;20202;-72
2023/08/09 04:12:52;;;;;;;6.27;3.47;;;;;;;;;;4912204;29;20309;-72
2023/08/09 04:15:21;;;;;;;6.07;2.93;;;;;;;;;;4912506;29;20191;-71
2023/08/09 04:17:49;;;;;;;5.93;2.83;;;;;;;;;;4890095;29;20227;-72
2023/08/09 04:20:16;;;;;;;4.30;3.17;;;;;;;;;;4894589;29;20609;-72
2023/08/09 04:22:43;;;;;;;6.40;3.33;;;;;;;;;;4873297;29;20978;-72
2023/08/09 04:25:12;;;;;;;6.43;3.10;;;;;;;;;;4906904;29;20203;-72
2023/08/09 04:27:40;;;;;;;4.87;3.77;;;;;;;;;;4893093;29;20242;-71
2023/08/09 04:30:10;;;;;;;5.03;2.73;;;;;;;;;;4909710;29;20195;-72
2023/08/09 04:32:38;;;;;;;7.63;3.00;;;;;;;;;;4878160;29;20191;-71
2023/08/09 04:35:05;;;;;;;5.60;2.80;;;;;;;;;;4908295;29;20192;-71
2023/08/09 04:37:32;;;;;;;4.93;3.00;;;;;;;;;;4889896;29;20199;-72
2023/08/09 04:39:59;;;;;;;5.30;2.70;;;;;;;;;;4910179;29;20219;-72
2023/08/09 04:42:27;;;;;;;6.53;2.63;;;;;;;;;;4906239;29;20563;-72
2023/08/09 04:44:54;;;;;;;5.80;2.73;;;;;;;;;;4895496;29;20239;-73
2023/08/09 04:47:21;;;;;;;6.13;2.30;;;;;;;;;;4909945;29;20340;-71
2023/08/09 04:49:48;;;;;;;5.40;2.70;;;;;;;;;;4880514;29;20574;-70
2023/08/09 04:52:15;;;;;;;4.47;2.60;;;;;;;;;;4887584;29;20267;-71
2023/08/09 04:54:42;;;;;;;7.80;2.53;;;;;;;;;;4893194;29;20293;-71
2023/08/09 04:57:09;;;;;;;4.30;2.53;;;;;;;;;;4908783;29;20191;-73
2023/08/09 04:59:35;;;;;;;8.10;2.60;;;;;;;;;;4890977;29;20717;-70
2023/08/09 05:02:05;;;;;;;5.00;2.50;;;;;;;;;;4909741;29;20200;-72
2023/08/09 05:04:32;;;;;;;3.80;2.40;;;;;;;;;;4907527;29;20290;-71
2023/08/09 05:07:00;;;;;;;4.63;2.37;;;;;;;;;;4895096;29;20229;-72
2023/08/09 05:09:28;;;;;;;3.83;2.10;;;;;;;;;;4895497;29;20200;-71
2023/08/09 05:11:55;;;;;;;4.37;2.30;;;;;;;;;;4909647;29;20206;-71
2023/08/09 05:14:21;;;;;;;6.97;2.27;;;;;;;;;;4913601;29;20579;-72
2023/08/09 05:16:48;;;;;;;3.87;2.07;;;;;;;;;;4896894;29;20278;-70
2023/08/09 05:19:15;;;;;;;4.50;2.03;;;;;;;;;;4894732;29;20227;-72
2023/08/09 05:21:43;;;;;;;4.17;2.10;;;;;;;;;;4896785;29;20600;-70
2023/08/09 05:24:26;;;;;;;5.53;2.03;;;;;;;;;;4914403;29;20191;-69
2023/08/09 05:26:53;;;;;;;5.53;2.47;;;;;;;;;;4913924;29;20207;-69
2023/08/09 05:29:37;;;;;;;5.60;2.30;;;;;;;;;;4899952;29;20248;-70
2023/08/09 05:32:04;;;;;;;4.07;2.30;;;;;;;;;;4907000;29;20187;-69
2023/08/09 05:34:31;;;;;;;4.60;2.60;;;;;;;;;;4891215;29;20255;-71
2023/08/09 05:36:58;;;;;;;8.47;2.27;;;;;;;;;;4909252;29;20546;-71
2023/08/09 05:39:26;;;;;;;6.87;2.07;;;;;;;;;;4892328;29;20196;-71
2023/08/09 05:41:53;;;;;;;7.67;2.27;;;;;;;;;;4910070;29;20226;-70
2023/08/09 05:44:20;;;;;;;7.33;2.17;;;;;;;;;;4909825;29;20203;-72
2023/08/09 05:46:49;;;;;;;7.43;2.20;;;;;;;;;;4891505;29;20227;-70
2023/08/09 05:49:16;;;;;;;4.33;2.03;;;;;;;;;;4898397;29;22997;-70
2023/08/09 05:51:42;;;;;;;7.70;2.57;;;;;;;;;;4903602;29;20200;-69
2023/08/09 05:54:09;;;;;;;7.13;2.03;;;;;;;;;;4905816;29;20239;-71
2023/08/09 05:56:36;;;;;;;5.00;1.90;;;;;;;;;;4914262;29;20199;-74
2023/08/09 05:59:04;;;;;;;6.10;2.10;;;;;;;;;;4912065;29;20203;-71
2023/08/09 06:01:31;;;;;;;4.53;1.73;;;;;;;;;;4907601;29;20194;-74
2023/08/09 06:03:58;;;;;;;4.50;1.80;;;;;;;;;;4899360;29;20220;-71
2023/08/09 06:06:25;;;;;;;6.13;1.97;;;;;;;;;;4893058;29;20663;-72
2023/08/09 06:08:52;;;;;;;6.53;1.67;;;;;;;;;;4887404;29;20235;-72
2023/08/09 06:11:19;;;;;;;3.73;1.60;;;;;;;;;;4903324;29;20310;-73
2023/08/09 06:13:47;;;;;;;5.70;1.50;;;;;;;;;;4894090;29;20588;-73
2023/08/09 06:16:14;;;;;;;3.53;1.60;;;;;;;;;;4908533;29;20195;-72
2023/08/09 06:18:59;;;;;;;5.37;1.70;;;;;;;;;;4895137;29;20195;-70
2023/08/09 06:21:26;;;;;;;3.80;1.80;;;;;;;;;;4906601;29;20193;-73
2023/08/09 06:23:53;;;;;;;4.87;1.70;;;;;;;;;;4906621;29;20199;-72
2023/08/09 06:26:21;;;;;;;3.97;1.77;;;;;;;;;;4910855;29;20893;-71
2023/08/09 06:28:48;;;;;;;4.07;1.90;;;;;;;;;;4893553;29;20817;-72
2023/08/09 06:31:16;;;;;;;5.00;1.60;;;;;;;;;;4889434;29;20294;-71
2023/08/09 06:33:43;;;;;;;6.03;2.40;;;;;;;;;;4896956;29;20201;-70
2023/08/09 06:36:11;;;;;;;8.33;1.67;;;;;;;;;;4906673;29;20203;-70
2023/08/09 06:38:39;;;;;;;5.80;1.63;;;;;;;;;;4890909;29;20203;-69
2023/08/09 06:41:06;;;;;;;4.30;1.57;;;;;;;;;;4910312;29;20618;-70
2023/08/09 06:43:35;;;;;;;5.27;1.40;;;;;;;;;;4891746;29;20723;-69
2023/08/09 06:46:20;;;;;;;6.43;1.70;;;;;;;;;;4891894;29;20201;-69
2023/08/09 06:48:47;;;;;;;6.60;1.70;;;;;;;;;;4912597;29;20211;-68
2023/08/09 06:51:15;;;;;;;7.47;1.70;;;;;;;;;;4897531;29;20800;-68
2023/08/09 06:53:42;;;;;;;5.20;1.67;;;;;;;;;;4893644;29;20203;-68
2023/08/09 06:56:10;;;;;;;6.10;1.33;;;;;;;;;;4891159;29;20854;-71
2023/08/09 06:58:37;;;;;;;5.93;1.77;;;;;;;;;;4899230;29;20198;-70
2023/08/09 07:01:06;;;;;;;4.60;1.13;;;;;;;;;;4884673;29;20212;-69
2023/08/09 07:03:35;;;;;;;7.03;1.70;;;;;;;;;;4899851;29;20192;-70
2023/08/09 07:06:03;;;;;;;3.57;1.50;;;;;;;;;;4888958;29;20197;-70
2023/08/09 07:08:30;;;;;;;5.47;1.30;;;;;;;;;;4872657;29;20211;-69
2023/08/09 07:10:58;;;;;;;6.10;1.20;;;;;;;;;;4873742;29;20199;-70
2023/08/09 07:13:27;;;;;;;4.13;1.20;;;;;;;;;;4898191;29;20262;-70
2023/08/09 07:15:54;;;;;;;3.63;1.40;;;;;;;;;;4859546;29;20219;-70
2023/08/09 07:18:22;;;;;;;7.83;1.50;;;;;;;;;;4894050;29;20196;-70
2023/08/09 07:21:06;;;;;;;8.03;1.10;;;;;;;;;;4890637;29;20180;-68
2023/08/09 07:23:33;;;;;;;4.03;1.10;;;;;;;;;;4893852;29;20199;-68
2023/08/09 07:26:20;;;;;;;6.87;1.43;;;;;;;;;;4908632;29;20201;-69
2023/08/09 07:28:47;;;;;;;6.20;1.33;;;;;;;;;;4891980;29;20223;-69
2023/08/09 07:31:19;;;;;;;5.70;1.40;;;;;;;;;;4903768;29;20611;-68
2023/08/09 07:33:46;;;;;;;3.97;1.40;;;;;;;;;;4872487;29;20196;-69
2023/08/09 07:36:13;;;;;;;7.13;1.53;;;;;;;;;;4908773;29;20199;-70
2023/08/09 07:38:40;;;;;;;7.13;1.33;;;;;;;;;;4894931;29;20202;-68
2023/08/09 07:41:07;;;;;;;3.07;1.30;;;;;;;;;;4877504;29;20199;-69
2023/08/09 07:43:34;;;;;;;5.40;1.40;;;;;;;;;;4894126;29;20199;-71
2023/08/09 07:46:04;;;;;;;8.20;1.63;;;;;;;;;;4910625;29;20203;-71
2023/08/09 07:48:32;;;;;;;5.97;1.57;;;;;;;;;;4862246;29;20238;-72
2023/08/09 07:51:01;;;;;;;4.37;1.47;;;;;;;;;;4868334;29;20326;-71
2023/08/09 07:53:28;;;;;;;3.57;1.30;;;;;;;;;;4894370;29;20777;-71
2023/08/09 07:55:54;;;;;;;5.47;1.10;;;;;;;;;;4877908;29;20231;-71
2023/08/09 07:58:22;;;;;;;6.77;1.37;;;;;;;;;;4911667;29;20275;-71
2023/08/09 08:00:49;;;;;;;7.23;1.47;;;;;;;;;;4908321;29;20286;-72
2023/08/09 08:03:36;;;;;;;5.20;1.30;;;;;;;;;;4883138;29;20226;-71
2023/08/09 08:06:03;;;;;;;4.07;1.03;;;;;;;;;;4911075;29;20195;-71
2023/08/09 08:08:30;;;;;;;4.50;1.30;;;;;;;;;;4893758;29;20238;-72
2023/08/09 08:10:59;;;;;;;6.50;1.53;;;;;;;;;;4911855;29;20286;-72
2023/08/09 08:13:26;;;;;;;3.27;1.20;;;;;;;;;;4912723;29;20203;-71
2023/08/09 08:15:53;;;;;;;4.10;1.13;;;;;;;;;;4878018;29;20306;-71
2023/08/09 08:18:20;;;;;;;4.27;1.00;;;;;;;;;;4895115;29;20199;-71
2023/08/09 08:20:47;;;;;;;3.57;0.90;;;;;;;;;;4897344;29;20194;-72
2023/08/09 08:23:14;;;;;;;2.40;0.90;;;;;;;;;;4913990;29;20187;-70
2023/08/09 08:25:41;;;;;;;4.03;0.80;;;;;;;;;;4897237;29;20196;-72
2023/08/09 08:28:09;;;;;;;4.20;1.20;;;;;;;;;;4910943;29;20976;-71
2023/08/09 08:30:36;;;;;;;6.13;1.70;;;;;;;;;;4879029;29;20711;-71
2023/08/09 08:33:04;;;;;;;5.60;1.10;;;;;;;;;;4911605;29;20279;-72
2023/08/09 08:35:36;;;;;;;4.43;1.20;;;;;;;;;;4893877;29;20255;-71
2023/08/09 08:38:03;;;;;;;3.57;1.33;;;;;;;;;;4888091;29;20273;-72
2023/08/09 08:40:31;;;;;;;5.53;1.50;;;;;;;;;;4912922;29;20188;-70
2023/08/09 08:43:17;;;;;;;4.43;1.13;;;;;;;;;;4893718;29;20215;-69
2023/08/09 08:45:47;;;;;;;5.23;1.03;;;;;;;;;;4895579;29;20185;-70
2023/08/09 08:48:16;;;;;;;4.80;1.00;;;;;;;;;;4913084;29;20235;-74
2023/08/09 08:50:43;;;;;;;6.50;1.30;;;;;;;;;;4883764;29;20255;-71
2023/08/09 08:53:11;;;;;;;3.90;1.00;;;;;;;;;;4893503;29;20215;-72
2023/08/09 08:55:39;;;;;;;3.83;1.10;;;;;;;;;;4880947;29;20279;-70
2023/08/09 08:58:05;;;;;;;4.13;1.20;;;;;;;;;;4892145;29;20933;-68
2023/08/09 09:00:32;;;;;;;3.00;0.90;;;;;;;;;;4910476;29;20184;-67
2023/08/09 09:02:59;;;;;;;3.77;1.20;;;;;;;;;;4888045;29;20255;-67
2023/08/09 09:05:26;;;;;;;5.33;1.10;;;;;;;;;;4908725;29;20209;-69
2023/08/09 09:07:56;;;;;;;3.43;1.13;;;;;;;;;;4914942;29;20214;-68
2023/08/09 09:10:24;;;;;;;6.70;1.30;;;;;;;;;;4907572;29;20414;-68
2023/08/09 09:12:53;;;;;;;2.63;1.10;;;;;;;;;;4890063;29;20275;-68
2023/08/09 09:15:20;;;;;;;2.50;1.00;;;;;;;;;;4896118;29;20185;-67
2023/08/09 09:17:48;;;;;;;3.53;1.03;;;;;;;;;;4896242;29;20185;-68
2023/08/09 09:20:21;;;;;;;4.03;1.00;;;;;;;;;;4895888;29;20222;-68
2023/08/09 09:22:48;;;;;;;4.07;1.20;;;;;;;;;;4894985;29;20204;-68
2023/08/09 09:25:15;;;;;;;4.07;1.20;;;;;;;;;;4895683;29;20192;-67
2023/08/09 09:27:42;;;;;;;5.23;1.10;;;;;;;;;;4898100;29;20198;-69
2023/08/09 09:30:12;;;;;;;4.70;1.07;;;;;;;;;;4912019;29;20199;-68
2023/08/09 09:32:58;;;;;;;3.93;0.90;;;;;;;;;;4897169;29;20276;-67
2023/08/09 09:35:25;;;;;;;2.30;0.90;;;;;;;;;;4895239;29;20252;-67
2023/08/09 09:37:53;;;;;;;4.40;1.10;;;;;;;;;;4900195;29;20230;-67
2023/08/09 09:40:24;;;;;;;4.37;1.23;;;;;;;;;;4914693;29;20221;-67
2023/08/09 09:43:09;;;;;;;4.20;1.20;;;;;;;;;;4906097;29;20194;-68
2023/08/09 09:45:37;;;;;;;3.60;1.00;;;;;;;;;;4885661;29;20750;-67
2023/08/09 09:48:05;;;;;;;4.13;1.33;;;;;;;;;;4897444;29;20231;-68
2023/08/09 09:50:33;;;;;;;3.50;1.10;;;;;;;;;;4878715;29;20192;-68
2023/08/09 09:53:00;;;;;;;4.17;0.80;;;;;;;;;;4900117;29;20199;-67
2023/08/09 09:55:29;;;;;;;3.60;1.00;;;;;;;;;;4905905;29;20199;-68
2023/08/09 09:57:56;;;;;;;3.37;0.97;;;;;;;;;;4910111;29;20191;-68
2023/08/09 10:00:23;;;;;;;2.00;0.80;;;;;;;;;;4907226;29;20227;-67
2023/08/09 10:02:51;;;;;;;4.37;0.97;;;;;;;;;;4910625;29;20667;-68
2023/08/09 10:05:23;;;;;;;3.23;1.53;;;;;;;;;;4894645;29;20195;-67
2023/08/09 10:07:50;;;;;;;3.00;0.80;;;;;;;;;;4891108;29;20282;-68
2023/08/09 10:10:19;;;;;;;3.13;1.20;;;;;;;;;;4888766;29;20200;-67
2023/08/09 10:12:47;;;;;;;3.67;1.20;;;;;;;;;;4911624;29;20612;-68
2023/08/09 10:15:15;;;;;;;3.20;0.90;;;;;;;;;;4911361;29;20607;-68
2023/08/09 10:17:42;;;;;;;1.43;0.83;;;;;;;;;;4891341;29;20318;-70
2023/08/09 10:20:10;;;;;;;2.10;0.77;;;;;;;;;;4888519;29;20184;-68
2023/08/09 10:22:37;;;;;;;4.30;0.80;;;;;;;;;;4894478;29;20203;-68
2023/08/09 10:25:08;;;;;;;2.67;0.73;;;;;;;;;;4895371;29;20179;-68
2023/08/09 10:27:59;;;;;;;3.60;0.83;;;;;;;;;;4910071;29;20192;-68
2023/08/09 10:30:28;;;;;;;2.07;0.90;;;;;;;;;;4895973;29;20662;-67
2023/08/09 10:32:58;;;;;;;2.13;0.90;;;;;;;;;;4879160;29;20195;-69
2023/08/09 10:35:43;;;;;;;2.37;0.90;;;;;;;;;;4910826;29;20671;-69
2023/08/09 10:38:30;;;;;;;3.77;1.00;;;;;;;;;;4897837;29;20167;-69
2023/08/09 10:41:09;;;;;;;2.23;1.00;;;;;;;;;;4911594;29;20231;-69
2023/08/09 10:44:03;;;;;;;3.23;1.00;;;;;;;;;;4908657;29;20262;-70
2023/08/09 10:46:34;;;;;;;1.70;0.77;;;;;;;;;;4892894;29;20198;-70
2023/08/09 10:49:01;;;;;;;2.90;0.90;;;;;;;;;;4911017;29;20691;-72
2023/08/09 10:51:27;;;;;;;2.60;0.70;;;;;;;;;;4894567;29;20210;-70
2023/08/09 10:53:54;;;;;;;3.83;0.90;;;;;;;;;;4911232;29;20203;-70
2023/08/09 10:56:28;;;;;;;2.47;1.00;;;;;;;;;;4911148;29;20187;-70
2023/08/09 10:58:55;;;;;;;2.70;1.03;;;;;;;;;;4911100;29;20207;-71
2023/08/09 11:01:42;;;;;;;1.67;0.80;;;;;;;;;;4894536;29;20179;-70
2023/08/09 11:04:10;;;;;;;2.57;1.03;;;;;;;;;;4911207;29;20203;-72
2023/08/09 11:06:37;;;;;;;1.87;0.70;;;;;;;;;;4894189;29;20238;-71
2023/08/09 11:09:08;;;;;;;4.60;1.17;;;;;;;;;;4897172;29;20219;-71
2023/08/09 11:11:35;;;;;;;2.70;0.80;;;;;;;;;;4915168;29;20193;-71
2023/08/09 11:14:02;;;;;;;2.07;0.80;;;;;;;;;;4880773;29;20195;-69
2023/08/09 11:16:29;;;;;;;4.80;0.97;;;;;;;;;;4894742;29;20247;-72
2023/08/09 11:18:59;;;;;;;3.50;0.77;;;;;;;;;;4913129;29;20199;-72
2023/08/09 11:21:26;;;;;;;2.63;0.90;;;;;;;;;;4912876;29;20222;-72
2023/08/09 11:23:57;;;;;;;3.00;0.70;;;;;;;;;;4912836;29;20199;-72
2023/08/09 11:26:25;;;;;;;3.53;0.80;;;;;;;;;;4896539;29;20207;-72
2023/08/09 11:28:51;;;;;;;3.93;1.00;;;;;;;;;;4896027;29;20212;-72
2023/08/09 11:31:19;;;;;;;2.77;0.90;;;;;;;;;;4912853;29;20738;-72
2023/08/09 11:33:46;;;;;;;2.57;0.90;;;;;;;;;;4894053;29;20192;-72
2023/08/09 11:36:14;;;;;;;4.33;0.90;;;;;;;;;;4912583;29;20349;-72
2023/08/09 11:38:41;;;;;;;1.47;0.80;;;;;;;;;;4912853;29;20294;-71
2023/08/09 11:41:08;;;;;;;2.23;0.80;;;;;;;;;;4912428;29;20282;-70
2023/08/09 11:43:35;;;;;;;2.13;0.87;;;;;;;;;;4896123;29;20207;-72
2023/08/09 11:46:01;;;;;;;3.73;1.03;;;;;;;;;;4914071;29;20722;-72
2023/08/09 11:48:29;;;;;;;1.93;0.83;;;;;;;;;;4896963;29;20238;-72
2023/08/09 11:51:06;;;;;;;1.77;0.80;;;;;;;;;;4880194;29;20196;-72
2023/08/09 11:53:36;;;;;;;1.80;0.93;;;;;;;;;;4914027;29;20218;-72
2023/08/09 11:56:04;;;;;;;1.33;0.70;;;;;;;;;;4913814;29;20187;-72
2023/08/09 11:58:37;;;;;;;2.07;0.80;;;;;;;;;;4897497;29;20194;-73
2023/08/09 12:01:18;;;;;;;2.03;0.90;;;;;;;;;;4913805;29;20287;-72
2023/08/09 12:03:45;;;;;;;2.20;0.90;;;;;;;;;;4913680;29;20199;-72
2023/08/09 12:06:36;;;;;;;1.20;0.70;;;;;;;;;;4914035;29;20175;-72
2023/08/09 12:09:21;;;;;;;0.93;0.80;;;;;;;;;;4911619;29;20223;-71
2023/08/09 12:11:49;;;;;;;3.40;0.80;;;;;;;;;;4899121;29;20200;-70
2023/08/09 12:14:16;;;;;;;1.97;0.73;;;;;;;;;;4897446;29;20196;-71
2023/08/09 12:16:43;;;;;;;1.50;0.80;;;;;;;;;;4913541;29;20172;-71
2023/08/09 12:19:10;;;;;;;3.47;1.00;;;;;;;;;;4896525;29;20219;-70
2023/08/09 12:21:37;;;;;;;1.57;0.80;;;;;;;;;;4912608;29;20243;-72
2023/08/09 12:24:07;;;;;;;3.57;0.87;;;;;;;;;;4912053;29;20195;-72
2023/08/09 12:26:34;;;;;;;1.70;0.73;;;;;;;;;;4913908;29;20278;-72
2023/08/09 12:29:00;;;;;;;3.67;0.80;;;;;;;;;;4913889;29;20223;-69
2023/08/09 12:31:27;;;;;;;2.70;0.80;;;;;;;;;;4913663;29;20604;-69
2023/08/09 12:33:55;;;;;;;4.03;0.80;;;;;;;;;;4913348;29;20259;-69
2023/08/09 12:36:21;;;;;;;2.20;0.80;;;;;;;;;;4913297;29;20202;-69
2023/08/09 12:38:48;;;;;;;2.70;0.90;;;;;;;;;;4896886;29;20274;-69
2023/08/09 12:41:15;;;;;;;1.93;0.70;;;;;;;;;;4911290;29;20698;-69
2023/08/09 12:43:44;;;;;;;2.73;0.67;;;;;;;;;;4896589;29;20210;-69
2023/08/09 12:46:11;;;;;;;2.77;0.90;;;;;;;;;;4880825;29;20983;-68
2023/08/09 12:48:38;;;;;;;2.20;0.80;;;;;;;;;;4912999;29;20249;-69
2023/08/09 12:51:06;;;;;;;3.33;1.10;;;;;;;;;;4913107;29;20247;-69
2023/08/09 12:53:32;;;;;;;1.90;0.70;;;;;;;;;;4913786;29;20734;-69
2023/08/09 12:55:59;;;;;;;3.83;0.70;;;;;;;;;;4912860;29;20543;-69
2023/08/09 12:58:26;;;;;;;1.33;0.80;;;;;;;;;;4894724;29;20199;-69
2023/08/09 13:00:52;;;;;;;2.03;0.90;;;;;;;;;;4912690;29;20203;-69
2023/08/09 13:03:19;;;;;;;2.43;0.70;;;;;;;;;;4912988;29;20188;-69
2023/08/09 13:05:46;;;;;;;2.87;0.80;;;;;;;;;;4913317;29;20195;-68
2023/08/09 13:08:13;;;;;;;2.37;0.80;;;;;;;;;;4907890;29;20531;-69
2023/08/09 13:10:40;;;;;;;2.43;0.80;;;;;;;;;;4906039;29;20227;-69
2023/08/09 13:13:07;;;;;;;1.97;1.17;;;;;;;;;;4908871;29;20666;-67
2023/08/09 13:15:34;;;;;;;1.93;0.70;;;;;;;;;;4908815;29;20196;-70
2023/08/09 13:18:01;;;;;;;2.10;1.00;;;;;;;;;;4908580;29;20202;-70
2023/08/09 13:20:29;;;;;;;1.53;0.80;;;;;;;;;;4878533;29;20192;-71
2023/08/09 13:22:56;;;;;;;1.93;0.83;;;;;;;;;;4892114;29;20977;-68
2023/08/09 13:25:23;;;;;;;2.47;1.10;;;;;;;;;;4911140;29;20190;-69
2023/08/09 13:27:50;;;;;;;1.77;0.80;;;;;;;;;;4892872;29;20192;-73
2023/08/09 13:30:17;;;;;;;2.23;0.80;;;;;;;;;;4896448;29;20609;-70
2023/08/09 13:32:46;;;;;;;2.80;0.90;;;;;;;;;;4902098;29;20247;-69
2023/08/09 13:35:14;;;;;;;3.83;1.00;;;;;;;;;;4904506;29;20971;-68
2023/08/09 13:37:41;;;;;;;1.63;0.90;;;;;;;;;;4892537;29;20206;-69
2023/08/09 13:40:25;;;;;;;2.93;0.90;;;;;;;;;;4904779;29;20183;-70
2023/08/09 13:42:52;;;;;;;2.63;0.80;;;;;;;;;;4910012;29;20199;-71
2023/08/09 13:45:19;;;;;;;2.37;1.03;;;;;;;;;;4908723;29;20206;-69
2023/08/09 13:47:46;;;;;;;4.00;0.90;;;;;;;;;;4902779;29;20235;-71
2023/08/09 13:50:14;;;;;;;2.83;1.10;;;;;;;;;;4906317;29;20615;-69
2023/08/09 13:52:43;;;;;;;3.13;0.97;;;;;;;;;;4906878;29;20238;-69
2023/08/09 13:55:10;;;;;;;2.97;0.90;;;;;;;;;;4871059;29;20725;-70
2023/08/09 13:57:37;;;;;;;2.37;0.83;;;;;;;;;;4896614;29;20596;-69
2023/08/09 14:00:07;;;;;;;3.30;0.90;;;;;;;;;;4895260;29;20199;-69
2023/08/09 14:02:34;;;;;;;4.00;0.80;;;;;;;;;;4893250;29;20552;-70
2023/08/09 14:05:01;;;;;;;3.30;1.20;;;;;;;;;;4904395;29;20204;-69
2023/08/09 14:07:28;;;;;;;2.33;0.90;;;;;;;;;;4897741;29;20282;-69
2023/08/09 14:09:56;;;;;;;2.57;0.90;;;;;;;;;;4893517;29;20579;-69
2023/08/09 14:12:22;;;;;;;1.73;1.07;;;;;;;;;;4893887;29;20213;-69
2023/08/09 14:14:51;;;;;;;2.83;0.90;;;;;;;;;;4894675;29;20227;-69
2023/08/09 14:17:18;;;;;;;3.13;0.97;;;;;;;;;;4867545;29;20195;-71
2023/08/09 14:19:45;;;;;;;2.03;0.97;;;;;;;;;;4873873;29;20856;-70
2023/08/09 14:22:12;;;;;;;4.53;1.37;;;;;;;;;;4875835;29;20199;-70
2023/08/09 14:24:39;;;;;;;1.93;1.00;;;;;;;;;;4890721;29;20279;-70
2023/08/09 14:27:06;;;;;;;2.37;1.00;;;;;;;;;;4898357;29;20235;-70
2023/08/09 14:29:36;;;;;;;2.57;0.73;;;;;;;;;;4910356;29;20207;-69
2023/08/09 14:32:04;;;;;;;3.93;1.07;;;;;;;;;;4908638;29;20191;-69
2023/08/09 14:34:31;;;;;;;2.43;0.93;;;;;;;;;;4910730;29;20230;-69
2023/08/09 14:36:58;;;;;;;5.57;1.20;;;;;;;;;;4907465;29;20226;-69
2023/08/09 14:39:25;;;;;;;2.97;0.93;;;;;;;;;;4897847;29;20200;-69
2023/08/09 14:41:52;;;;;;;3.93;1.20;;;;;;;;;;4910999;29;20194;-69
2023/08/09 14:44:19;;;;;;;3.40;1.17;;;;;;;;;;4903256;29;20697;-71
2023/08/09 14:46:45;;;;;;;4.87;1.17;;;;;;;;;;4914840;29;20231;-69
2023/08/09 14:49:12;;;;;;;3.27;1.20;;;;;;;;;;4917533;29;20204;-69
2023/08/09 14:51:40;;;;;;;4.07;1.23;;;;;;;;;;4915349;29;20711;-69
2023/08/09 14:54:07;;;;;;;1.67;0.93;;;;;;;;;;4913530;29;20198;-69
2023/08/09 14:56:34;;;;;;;3.43;1.00;;;;;;;;;;4900358;29;20202;-69
2023/08/09 14:59:01;;;;;;;2.43;0.90;;;;;;;;;;4917523;29;20203;-69
2023/08/09 15:01:28;;;;;;;3.33;1.10;;;;;;;;;;4917429;29;20183;-69
2023/08/09 15:03:55;;;;;;;2.77;1.20;;;;;;;;;;4900509;29;20212;-69
2023/08/09 15:06:22;;;;;;;6.30;1.17;;;;;;;;;;4917457;29;20198;-69
2023/08/09 15:08:50;;;;;;;2.03;0.97;;;;;;;;;;4917993;29;20203;-69
2023/08/09 15:11:16;;;;;;;3.03;1.10;;;;;;;;;;4917061;29;20227;-70
2023/08/09 15:13:43;;;;;;;2.23;1.10;;;;;;;;;;4917432;29;20195;-69
2023/08/09 15:16:10;;;;;;;2.47;1.20;;;;;;;;;;4915552;29;20255;-69
2023/08/09 15:18:37;;;;;;;3.30;1.00;;;;;;;;;;4919563;29;20195;-69
2023/08/09 15:21:04;;;;;;;3.07;1.10;;;;;;;;;;4920073;29;20194;-70
2023/08/09 15:23:31;;;;;;;2.43;1.13;;;;;;;;;;4919095;29;20938;-69
2023/08/09 15:25:58;;;;;;;2.27;1.20;;;;;;;;;;4900625;29;20642;-69
2023/08/09 15:28:27;;;;;;;4.47;1.37;;;;;;;;;;4917713;29;20195;-69